Weather History for KAIG - July, 2013

Change the Weather History Date:

Saturday, July 27, 2013

  Actual Average Record
Temperature  
Mean Temperature 49 °F -  
Max Temperature 54 °F 78 °F 95 °F (1955)
Min Temperature 44 °F 53 °F 40 °F (1981)
Degree Days  
Heating Degree Days 16    
Moisture  
Dew Point 45 °F    
Average Humidity 85    
Maximum Humidity 97    
Minimum Humidity 73    
Precipitation  
Precipitation 0.00 in - - ()
Sea Level Pressure  
Sea Level Pressure 29.89 in    
Wind  
Wind Speed 9 mph (WNW)    
Max Wind Speed 17 mph    
Max Gust Speed 22 mph    
Visibility 10 miles    
Events Rain    
Averages and records for this station are not official NWS values.
T = Trace of Precipitation, MM = Missing Value Source: NWS Daily Summary

Daily Weather History Graph

Daily Weather History Graph

Search for Another Location

Airport or City:

Trip Planner

Search our weather history database for the weather conditions in past years. The results will help you decide how hot, cold, wet, or windy it might be!

Date:

Astronomy

Jul. 27, 2013 Rise Set
Actual Time 5:36 AM CDT 8:29 PM CDT
Civil Twilight 5:01 AM CDT 9:03 PM CDT
Nautical Twilight 4:17 AM CDT 9:47 PM CDT
Astronomical Twilight 3:25 AM CDT 10:38 PM CDT
Moon 10:56 PM CDT (7/27) 11:35 AM CDT (7/27)
Length of Visible Light 16h 02m
Length of Day
14h 53m
Waning Gibbous, 70% of the Moon is Illuminated
Jul 27
Waning Gibbous
Jul 29
Last Quarter
Aug 6
New
Aug 14
First Quarter
Aug 20
Full

Hourly Weather History & Observations

Time (CDT) Temp. Windchill Dew Point Humidity Pressure Visibility Wind Dir Wind Speed Gust Speed Precip Events Conditions
12:15 AM 48.2 °F - 44.8 °F 88% 29.94 in 10.0 mi NNW 12.7 mph - N/A   Overcast
12:35 AM 48.2 °F - 44.6 °F 87% 29.94 in 10.0 mi NW 12.7 mph 17.3 mph N/A   Overcast
12:55 AM 47.3 °F - 43.3 °F 86% 29.94 in 10.0 mi NNW 17.3 mph 21.9 mph N/A   Overcast
1:15 AM 47.5 °F - 43.2 °F 85% 29.94 in 10.0 mi NNW 15.0 mph 20.7 mph N/A   Overcast
1:35 AM 47.3 °F - 42.6 °F 84% 29.94 in 10.0 mi NNW 9.2 mph - N/A   Overcast
1:55 AM 46.9 °F - 42.4 °F 84% 29.94 in 10.0 mi NW 9.2 mph 17.3 mph N/A   Overcast
2:15 AM 46.2 °F 41.7 °F 42.1 °F 85% 29.93 in 10.0 mi NNW 9.2 mph - N/A   Overcast
2:35 AM 45.0 °F 41.2 °F 42.1 °F 90% 29.94 in 10.0 mi NW 6.9 mph - N/A   Scattered Clouds
2:55 AM 45.3 °F 41.6 °F 42.8 °F 91% 29.94 in 10.0 mi NW 6.9 mph - N/A   Mostly Cloudy
3:15 AM 45.9 °F 42.3 °F 43.2 °F 90% 29.93 in 10.0 mi NW 6.9 mph - N/A   Overcast
3:35 AM 45.9 °F 41.2 °F 43.0 °F 90% 29.93 in 10.0 mi NW 9.2 mph - N/A   Overcast
3:55 AM 45.9 °F 41.7 °F 42.6 °F 88% 29.93 in 10.0 mi NW 8.1 mph - N/A   Overcast
4:15 AM 45.7 °F 41.0 °F 41.4 °F 85% 29.93 in 10.0 mi NW 9.2 mph 16.1 mph N/A   Overcast
4:35 AM 45.5 °F 41.3 °F 41.9 °F 87% 29.93 in 10.0 mi NNW 8.1 mph - N/A   Overcast
4:55 AM 45.5 °F 41.8 °F 41.5 °F 86% 29.93 in 10.0 mi NW 6.9 mph - N/A   Overcast
5:15 AM 44.8 °F 42.4 °F 41.9 °F 90% 29.93 in 10.0 mi NW 4.6 mph - N/A   Overcast
5:35 AM 45.0 °F 42.6 °F 41.7 °F 88% 29.93 in 10.0 mi WNW 4.6 mph - N/A   Overcast
5:55 AM 44.8 °F 41.0 °F 41.7 °F 89% 29.93 in 10.0 mi WNW 6.9 mph - N/A   Overcast
6:15 AM 45.0 °F 41.2 °F 42.1 °F 90% 29.93 in 10.0 mi NW 6.9 mph - N/A   Overcast
6:35 AM 44.6 °F 41.4 °F 42.8 °F 93% 29.93 in 10.0 mi WNW 5.8 mph - N/A   Mostly Cloudy
6:55 AM 45.3 °F 41.1 °F 43.3 °F 93% 29.93 in 10.0 mi WNW 8.1 mph - N/A   Overcast
7:15 AM 45.7 °F 41.0 °F 43.2 °F 91% 29.93 in 10.0 mi WNW 9.2 mph 16.1 mph N/A   Overcast
7:35 AM 46.4 °F 41.9 °F 42.6 °F 87% 29.92 in 10.0 mi WNW 9.2 mph - N/A   Overcast
7:55 AM 46.9 °F - 42.4 °F 84% 29.92 in 10.0 mi WNW 10.4 mph - N/A   Overcast
8:15 AM 47.3 °F - 42.8 °F 84% 29.92 in 10.0 mi WNW 8.1 mph - N/A   Overcast
8:35 AM 48.2 °F - 43.0 °F 82% 29.92 in 10.0 mi WNW 12.7 mph - N/A   Overcast
8:55 AM 48.4 °F - 43.5 °F 83% 29.92 in 10.0 mi West 9.2 mph - N/A   Overcast
9:15 AM 48.2 °F - 42.8 °F 82% 29.91 in 10.0 mi NW 9.2 mph - N/A   Overcast
9:35 AM 48.2 °F - 42.8 °F 82% 29.91 in 10.0 mi West 8.1 mph - N/A   Overcast
9:55 AM 48.7 °F - 43.0 °F 80% 29.91 in 10.0 mi West 4.6 mph - N/A   Overcast
10:15 AM 49.1 °F - 43.2 °F 80% 29.90 in 10.0 mi West 8.1 mph - N/A   Overcast
10:35 AM 49.8 °F - 43.7 °F 79% 29.90 in 10.0 mi WNW 8.1 mph - N/A   Overcast
10:55 AM 50.5 °F - 43.5 °F 77% 29.90 in 10.0 mi WNW 3.5 mph - N/A   Overcast
11:15 AM 50.7 °F - 44.2 °F 78% 29.89 in 10.0 mi West 5.8 mph - N/A   Overcast
11:35 AM 51.1 °F - 44.1 °F 77% 29.89 in 10.0 mi West 9.2 mph - N/A   Overcast
11:55 AM 50.7 °F - 43.9 °F 77% 29.88 in 10.0 mi West 9.2 mph - N/A   Overcast
12:15 PM 52.9 °F - 44.4 °F 73% 29.88 in 10.0 mi West 3.5 mph - N/A   Overcast
12:35 PM 51.8 °F - 44.4 °F 76% 29.88 in 10.0 mi West 13.8 mph 18.4 mph N/A   Overcast
12:55 PM 50.9 °F - 44.2 °F 78% 29.88 in 10.0 mi WNW 9.2 mph - N/A   Overcast
1:15 PM 51.6 °F - 46.0 °F 81% 29.88 in 10.0 mi West 12.7 mph 17.3 mph N/A   Overcast
1:35 PM 52.5 °F - 46.8 °F 81% 29.88 in 10.0 mi West 6.9 mph - N/A   Overcast
1:55 PM 50.5 °F - 46.0 °F 85% 29.88 in 5.0 mi West 9.2 mph 17.3 mph N/A   Haze
2:15 PM 53.1 °F - 45.9 °F 77% 29.87 in 10.0 mi West 9.2 mph - N/A   Overcast
2:35 PM 53.6 °F - 46.0 °F 76% 29.87 in 10.0 mi West 9.2 mph - N/A   Overcast
2:55 PM 54.7 °F - 47.1 °F 76% 29.86 in 10.0 mi West 9.2 mph - N/A   Overcast
3:15 PM 54.7 °F - 46.0 °F 73% 29.86 in 10.0 mi WSW 8.1 mph - N/A   Overcast
3:35 PM 54.1 °F - 46.2 °F 75% 29.86 in 10.0 mi WNW 10.4 mph - N/A   Overcast
3:55 PM 53.8 °F - 46.9 °F 78% 29.86 in 10.0 mi West 9.2 mph - N/A   Overcast
4:15 PM 52.3 °F - 47.3 °F 83% 29.86 in 10.0 mi WSW 5.8 mph - N/A   Overcast
4:35 PM 54.1 °F - 47.5 °F 78% 29.86 in 10.0 mi West 8.1 mph - N/A   Overcast
4:55 PM 51.1 °F - 48.2 °F 90% 29.86 in 5.0 mi WNW 6.9 mph - N/A   Overcast
5:15 PM 52.3 °F - 46.9 °F 82% 29.86 in 10.0 mi WNW 5.8 mph - N/A   Overcast
5:35 PM 52.9 °F - 46.6 °F 79% 29.85 in 10.0 mi NW 5.8 mph - N/A   Overcast
5:55 PM 52.7 °F - 46.9 °F 81% 29.85 in 10.0 mi NW 4.6 mph - N/A   Overcast
6:15 PM 53.2 °F - 46.8 °F 79% 29.84 in 10.0 mi WNW 6.9 mph - N/A   Overcast
6:35 PM 53.6 °F - 47.3 °F 79% 29.84 in 10.0 mi WNW 3.5 mph - N/A   Overcast
6:55 PM 53.1 °F - 47.1 °F 80% 29.84 in 10.0 mi WNW 4.6 mph - N/A   Overcast
7:15 PM 52.9 °F - 47.5 °F 82% 29.84 in 10.0 mi WNW 4.6 mph - N/A   Overcast
7:35 PM 52.2 °F - 46.6 °F 81% 29.84 in 10.0 mi NNW 4.6 mph - N/A   Overcast
7:55 PM 52.0 °F - 47.3 °F 84% 29.84 in 10.0 mi NW 3.5 mph - N/A   Overcast
8:15 PM 52.0 °F - 47.8 °F 86% 29.84 in 10.0 mi Calm Calm - N/A   Overcast
8:35 PM 51.8 °F - 47.8 °F 86% 29.85 in 10.0 mi Calm Calm - N/A   Overcast
8:55 PM 51.8 °F - 48.6 °F 89% 29.85 in 10.0 mi Calm Calm - N/A   Overcast
9:15 PM 51.3 °F - 49.5 °F 94% 29.85 in 10.0 mi Calm Calm - N/A   Overcast
9:35 PM 51.1 °F - 48.7 °F 92% 29.85 in 10.0 mi Calm Calm - N/A   Overcast
9:55 PM 50.9 °F - 49.1 °F 94% 29.85 in 10.0 mi Calm Calm - N/A   Overcast
10:15 PM 50.9 °F - 48.6 °F 92% 29.85 in 10.0 mi WNW 4.6 mph - N/A   Overcast
10:35 PM 50.5 °F - 48.7 °F 94% 29.85 in 10.0 mi NW 4.6 mph - N/A   Overcast
10:55 PM 50.0 °F - 48.4 °F 94% 29.85 in 10.0 mi North 4.6 mph - N/A Rain Light Rain
11:15 PM 49.5 °F - 48.6 °F 97% 29.84 in 7.0 mi North 5.8 mph - N/A   Light Drizzle
11:35 PM 49.3 °F - 48.2 °F 96% 29.84 in 10.0 mi North 5.8 mph - N/A   Overcast
11:55 PM 49.1 °F - 47.5 °F 94% 29.84 in 10.0 mi North 4.6 mph - N/A   Overcast